Time,TemperatureF,DewpointF,PressureIn,WindDirection,WindDirectionDegrees,WindSpeedMPH,WindSpeedGustMPH,Humidity,HourlyPrecipIn,Conditions,Clouds,dailyrainin,SoftwareType,DateUTC
2013-08-18 00:00:00,73.2,52.9,30.18,SE,135,0.0,0.0,49,0.00,,BKN070,0.00,VWS V14.01,2013-08-18 04:00:00,
2013-08-18 00:01:00,73.0,52.8,30.18,SE,135,1.1,1.6,49,0.00,,BKN070,0.00,VWS V14.01,2013-08-18 04:01:00,
2013-08-18 00:06:00,72.9,52.6,30.18,ESE,112,0.0,2.2,49,0.00,,BKN070,0.00,VWS V14.01,2013-08-18 04:06:00,
2013-08-18 00:11:00,72.7,52.4,30.18,SW,225,0.0,2.2,49,0.00,,BKN070,0.00,VWS V14.01,2013-08-18 04:11:00,
2013-08-18 00:16:00,72.5,52.3,30.18,South,180,2.0,2.9,49,0.00,,CLR,0.00,VWS V14.01,2013-08-18 04:16:00,
2013-08-18 00:21:00,72.5,52.8,30.18,East,90,1.1,3.6,50,0.00,,CLR,0.00,VWS V14.01,2013-08-18 04:21:00,
2013-08-18 00:26:00,72.3,52.7,30.18,East,90,0.0,3.6,50,0.00,,CLR,0.00,VWS V14.01,2013-08-18 04:26:00,
2013-08-18 00:31:00,72.1,52.5,30.18,East,90,2.7,3.6,50,0.00,,CLR,0.00,VWS V14.01,2013-08-18 04:31:00,
2013-08-18 00:36:00,72.1,53.0,30.18,ENE,68,2.5,3.6,51,0.00,,CLR,0.00,VWS V14.01,2013-08-18 04:36:00,
2013-08-18 00:41:00,72.0,52.9,30.18,ESE,112,0.0,3.6,51,0.00,,CLR,0.00,VWS V14.01,2013-08-18 04:41:00,
2013-08-18 00:46:00,71.8,53.2,30.18,South,180,0.0,3.6,52,0.00,,CLR,0.00,VWS V14.01,2013-08-18 04:46:00,
2013-08-18 00:51:00,71.6,53.1,30.18,SE,135,1.6,3.6,52,0.00,,CLR,0.00,VWS V14.01,2013-08-18 04:51:00,
2013-08-18 00:56:00,71.4,53.4,30.18,ESE,112,0.9,3.6,53,0.00,,CLR,0.00,VWS V14.01,2013-08-18 04:56:00,
2013-08-18 01:00:00,71.2,53.2,30.18,SSE,158,1.6,3.6,53,0.00,,-RA,0.00,VWS V14.01,2013-08-18 05:00:00,
2013-08-18 01:01:00,71.2,53.2,30.18,SSE,158,2.5,2.7,53,0.00,,CLR,0.00,VWS V14.01,2013-08-18 05:01:00,
2013-08-18 01:06:00,71.2,53.8,30.18,ESE,112,0.0,2.7,54,0.00,,CLR,0.00,VWS V14.01,2013-08-18 05:06:00,
2013-08-18 01:11:00,71.1,53.6,30.18,SSE,158,0.0,2.7,54,0.00,,CLR,0.00,VWS V14.01,2013-08-18 05:11:00,
2013-08-18 01:16:00,70.9,53.4,30.18,SSE,158,0.0,2.7,54,0.00,,CLR,0.00,VWS V14.01,2013-08-18 05:16:00,
2013-08-18 01:21:00,70.9,53.9,30.18,WSW,248,0.0,2.7,55,0.00,,CLR,0.00,VWS V14.01,2013-08-18 05:21:00,
2013-08-18 01:26:00,70.7,53.8,30.18,SE,135,1.6,2.7,55,0.00,,CLR,0.00,VWS V14.01,2013-08-18 05:26:00,
2013-08-18 01:31:00,70.5,53.6,30.18,SSE,158,0.9,2.7,55,0.00,,CLR,0.00,VWS V14.01,2013-08-18 05:31:00,
2013-08-18 01:36:00,70.5,54.6,30.18,SE,135,0.0,2.7,57,0.00,,CLR,0.00,VWS V14.01,2013-08-18 05:36:00,
2013-08-18 01:41:00,70.3,53.9,30.18,SSE,158,0.0,2.7,56,0.00,,CLR,0.00,VWS V14.01,2013-08-18 05:41:00,
2013-08-18 01:46:00,70.2,53.8,30.18,NNE,22,0.0,2.7,56,0.00,,CLR,0.00,VWS V14.01,2013-08-18 05:46:00,
2013-08-18 01:51:00,70.0,54.5,30.18,NNE,22,0.0,2.7,58,0.00,,CLR,0.00,VWS V14.01,2013-08-18 05:51:00,
2013-08-18 01:56:00,70.0,55.0,30.18,NNE,22,0.0,2.7,59,0.00,,CLR,0.00,VWS V14.01,2013-08-18 05:56:00,
2013-08-18 02:00:00,69.8,54.4,30.18,NNE,22,0.0,2.7,58,0.00,,-RA,0.00,VWS V14.01,2013-08-18 06:00:00,
2013-08-18 02:01:00,69.8,54.8,30.18,NNE,22,0.0,0.0,59,0.00,,FEW100,0.00,VWS V14.01,2013-08-18 06:01:00,
2013-08-18 02:06:00,69.6,55.6,30.18,North,0,0.0,0.0,61,0.00,,FEW100,0.00,VWS V14.01,2013-08-18 06:06:00,
2013-08-18 02:11:00,69.4,55.0,30.18,ENE,68,0.0,0.0,60,0.00,,FEW100,0.00,VWS V14.01,2013-08-18 06:11:00,
2013-08-18 02:16:00,69.4,55.0,30.18,ENE,68,0.0,0.0,60,0.00,,FEW100,0.00,VWS V14.01,2013-08-18 06:16:00,
2013-08-18 02:21:00,69.3,54.8,30.18,SSE,158,0.0,0.0,60,0.00,,FEW100,0.00,VWS V14.01,2013-08-18 06:21:00,
2013-08-18 02:26:00,69.3,55.2,30.15,SSE,158,0.0,0.0,61,0.00,,FEW100,0.00,VWS V14.01,2013-08-18 06:26:00,
2013-08-18 02:31:00,69.3,55.2,30.15,ESE,112,0.0,2.9,61,0.00,,FEW100,0.00,VWS V14.01,2013-08-18 06:31:00,
2013-08-18 02:36:00,69.1,55.1,30.15,ENE,68,0.0,2.9,61,0.00,,FEW100,0.00,VWS V14.01,2013-08-18 06:36:00,
2013-08-18 02:41:00,69.1,55.1,30.15,SSE,158,0.0,2.9,61,0.00,,FEW100,0.00,VWS V14.01,2013-08-18 06:41:00,
2013-08-18 02:46:00,69.1,55.5,30.15,SSE,158,0.0,2.9,62,0.00,,FEW100,0.00,VWS V14.01,2013-08-18 06:46:00,
2013-08-18 02:51:00,68.9,55.4,30.15,SSE,158,0.0,2.9,62,0.00,,FEW100,0.00,VWS V14.01,2013-08-18 06:51:00,
2013-08-18 02:56:00,68.9,55.8,30.15,SSE,158,0.0,2.9,63,0.00,,FEW100,0.00,VWS V14.01,2013-08-18 06:56:00,
2013-08-18 03:00:00,68.7,55.6,30.15,SSE,158,0.0,2.9,63,0.00,,-RA,0.00,VWS V14.01,2013-08-18 07:00:00,
2013-08-18 03:01:00,68.7,55.6,30.15,SSE,158,0.0,0.0,63,0.00,,FEW100,0.00,VWS V14.01,2013-08-18 07:01:00,
2013-08-18 03:06:00,68.5,55.9,30.15,SSE,158,0.0,0.0,64,0.00,,FEW100,0.00,VWS V14.01,2013-08-18 07:06:00,
2013-08-18 03:11:00,68.5,56.3,30.15,SSE,158,0.0,0.0,65,0.00,,FEW100,0.00,VWS V14.01,2013-08-18 07:11:00,
2013-08-18 03:16:00,68.2,56.4,30.15,SSE,158,0.0,0.0,66,0.00,,CLR,0.00,VWS V14.01,2013-08-18 07:16:00,
2013-08-18 03:21:00,68.2,56.8,30.15,SSE,158,0.0,0.0,67,0.00,,CLR,0.00,VWS V14.01,2013-08-18 07:21:00,
2013-08-18 03:26:00,68.0,56.7,30.15,SSE,158,0.0,0.0,67,0.00,,CLR,0.00,VWS V14.01,2013-08-18 07:26:00,
2013-08-18 03:31:00,67.8,56.5,30.15,SSE,158,0.0,0.0,67,0.00,,CLR,0.00,VWS V14.01,2013-08-18 07:31:00,
2013-08-18 03:36:00,67.8,56.9,30.15,SSE,158,0.0,0.0,68,0.00,,CLR,0.00,VWS V14.01,2013-08-18 07:36:00,
2013-08-18 03:41:00,67.6,57.1,30.12,SSE,158,0.0,0.0,69,0.00,,CLR,0.00,VWS V14.01,2013-08-18 07:41:00,
2013-08-18 03:46:00,67.3,56.8,30.12,SSE,158,0.0,0.0,69,0.00,,CLR,0.00,VWS V14.01,2013-08-18 07:46:00,
2013-08-18 03:51:00,67.3,56.8,30.12,SSE,158,0.0,0.0,69,0.00,,CLR,0.00,VWS V14.01,2013-08-18 07:51:00,
2013-08-18 03:56:00,67.1,57.0,30.15,SSE,158,0.0,0.0,70,0.00,,CLR,0.00,VWS V14.01,2013-08-18 07:56:00,
2013-08-18 04:00:00,67.1,57.4,30.15,SSE,158,0.0,0.0,71,0.00,,-RA,0.00,VWS V14.01,2013-08-18 08:00:00,
2013-08-18 04:01:00,66.9,57.2,30.15,SSE,158,0.0,0.0,71,0.00,,CLR,0.00,VWS V14.01,2013-08-18 08:01:00,
2013-08-18 04:06:00,66.9,57.2,30.15,SSE,158,0.0,0.0,71,0.00,,CLR,0.00,VWS V14.01,2013-08-18 08:06:00,
2013-08-18 04:10:00,66.7,57.4,30.15,SSE,158,0.0,0.0,72,0.00,,CLR,0.00,VWS V14.01,2013-08-18 08:10:00,
2013-08-18 04:15:00,66.7,58.2,30.15,SSE,158,0.0,0.0,74,0.00,,CLR,0.00,VWS V14.01,2013-08-18 08:15:00,
2013-08-18 04:20:00,66.6,58.0,30.15,SSE,158,0.0,0.0,74,0.00,,CLR,0.00,VWS V14.01,2013-08-18 08:20:00,
2013-08-18 04:25:00,66.4,57.8,30.12,SSE,158,0.0,0.0,74,0.00,,CLR,0.00,VWS V14.01,2013-08-18 08:25:00,
2013-08-18 04:30:00,66.4,57.8,30.12,SSE,158,0.0,0.0,74,0.00,,CLR,0.00,VWS V14.01,2013-08-18 08:30:00,
2013-08-18 04:35:00,66.4,58.6,30.12,SSE,158,0.0,0.0,76,0.00,,CLR,0.00,VWS V14.01,2013-08-18 08:35:00,
2013-08-18 04:40:00,66.2,58.0,30.12,SSE,158,0.0,0.0,75,0.00,,CLR,0.00,VWS V14.01,2013-08-18 08:40:00,
2013-08-18 04:45:00,66.2,58.4,30.15,SSE,158,0.0,0.0,76,0.00,,CLR,0.00,VWS V14.01,2013-08-18 08:45:00,
2013-08-18 04:50:00,66.2,59.2,30.15,SSE,158,0.0,0.0,78,0.00,,CLR,0.00,VWS V14.01,2013-08-18 08:50:00,
2013-08-18 04:55:00,66.2,59.2,30.15,SSE,158,0.0,0.0,78,0.00,,CLR,0.00,VWS V14.01,2013-08-18 08:55:00,
2013-08-18 05:00:00,66.2,59.2,30.12,SSE,158,0.0,0.0,78,0.00,,CLR,0.00,VWS V14.01,2013-08-18 09:00:00,
2013-08-18 05:05:00,66.2,59.2,30.12,SSE,158,0.0,0.0,78,0.00,,CLR,0.00,VWS V14.01,2013-08-18 09:05:00,
2013-08-18 05:10:00,66.2,58.8,30.15,SSE,158,0.0,0.0,77,0.00,,CLR,0.00,VWS V14.01,2013-08-18 09:10:00,
2013-08-18 05:15:00,66.2,59.2,30.15,SSE,158,0.0,0.0,78,0.00,,CLR,0.00,VWS V14.01,2013-08-18 09:15:00,
2013-08-18 05:20:00,66.0,59.0,30.15,SSE,158,0.0,0.0,78,0.00,,CLR,0.00,VWS V14.01,2013-08-18 09:20:00,
2013-08-18 05:25:00,66.0,59.3,30.15,SSE,158,0.0,0.0,79,0.00,,CLR,0.00,VWS V14.01,2013-08-18 09:25:00,
2013-08-18 05:30:00,66.0,59.0,30.15,SSE,158,0.0,0.0,78,0.00,,CLR,0.00,VWS V14.01,2013-08-18 09:30:00,
2013-08-18 05:35:00,65.8,58.8,30.15,SSE,158,0.0,0.0,78,0.00,,CLR,0.00,VWS V14.01,2013-08-18 09:35:00,
2013-08-18 05:40:00,65.8,59.2,30.15,SSE,158,0.0,0.0,79,0.00,,CLR,0.00,VWS V14.01,2013-08-18 09:40:00,
2013-08-18 05:45:00,65.8,59.2,30.15,SSE,158,0.0,0.0,79,0.00,,CLR,0.00,VWS V14.01,2013-08-18 09:45:00,
2013-08-18 05:50:00,65.7,59.0,30.15,ENE,68,0.0,0.0,79,0.00,,CLR,0.00,VWS V14.01,2013-08-18 09:50:00,
2013-08-18 05:55:00,65.7,59.3,30.15,ENE,68,0.0,0.0,80,0.00,,CLR,0.00,VWS V14.01,2013-08-18 09:55:00,
2013-08-18 06:00:00,65.7,59.7,30.15,NW,315,0.0,0.0,81,0.00,,CLR,0.00,VWS V14.01,2013-08-18 10:00:00,
2013-08-18 06:05:00,65.5,59.5,30.15,NW,315,0.0,0.0,81,0.00,,CLR,0.00,VWS V14.01,2013-08-18 10:05:00,
2013-08-18 06:10:00,65.5,59.2,30.15,NW,315,0.0,0.0,80,0.00,,CLR,0.00,VWS V14.01,2013-08-18 10:10:00,
2013-08-18 06:15:00,65.5,59.8,30.15,NW,315,0.0,0.0,82,0.00,,FEW180,0.00,VWS V14.01,2013-08-18 10:15:00,
2013-08-18 06:20:00,65.3,59.3,30.15,NW,315,0.0,0.0,81,0.00,,FEW180,0.00,VWS V14.01,2013-08-18 10:20:00,
2013-08-18 06:25:00,65.3,59.7,30.18,NW,315,0.0,0.0,82,0.00,,FEW180,0.00,VWS V14.01,2013-08-18 10:25:00,
2013-08-18 06:30:00,65.3,59.7,30.18,NW,315,0.0,0.0,82,0.00,,FEW180,0.00,VWS V14.01,2013-08-18 10:30:00,
2013-08-18 06:35:00,65.3,59.7,30.18,NNW,338,0.0,2.2,82,0.00,,FEW180,0.00,VWS V14.01,2013-08-18 10:35:00,
2013-08-18 06:40:00,65.3,59.7,30.18,NNW,338,0.0,2.2,82,0.00,,FEW180,0.00,VWS V14.01,2013-08-18 10:40:00,
2013-08-18 06:45:00,65.3,60.0,30.18,NNW,338,0.0,2.2,83,0.00,,FEW180,0.00,VWS V14.01,2013-08-18 10:45:00,
2013-08-18 06:50:00,65.3,60.0,30.18,NNW,338,0.0,2.2,83,0.00,,FEW180,0.00,VWS V14.01,2013-08-18 10:50:00,
2013-08-18 06:55:00,65.1,59.5,30.21,NNW,338,0.0,2.2,82,0.00,,FEW180,0.00,VWS V14.01,2013-08-18 10:55:00,
2013-08-18 07:00:00,65.1,59.5,30.21,NNW,338,0.0,0.0,82,0.00,,CLR,0.00,VWS V14.01,2013-08-18 11:00:00,
2013-08-18 07:05:00,64.9,59.7,30.21,NNW,338,0.0,0.0,83,0.00,,CLR,0.00,VWS V14.01,2013-08-18 11:05:00,
2013-08-18 07:10:00,64.9,59.7,30.21,NNW,338,0.0,0.0,83,0.00,,CLR,0.00,VWS V14.01,2013-08-18 11:10:00,
2013-08-18 07:15:00,64.9,60.3,30.21,NNW,338,0.0,0.0,85,0.00,,CLR,0.00,VWS V14.01,2013-08-18 11:15:00,
2013-08-18 07:20:00,64.9,60.3,30.21,NNW,338,0.0,0.0,85,0.00,,CLR,0.00,VWS V14.01,2013-08-18 11:20:00,
2013-08-18 07:25:00,64.9,60.3,30.21,NNW,338,0.0,0.0,85,0.00,,CLR,0.00,VWS V14.01,2013-08-18 11:25:00,
2013-08-18 07:30:00,64.9,60.3,30.21,NNW,338,0.0,0.0,85,0.00,,CLR,0.00,VWS V14.01,2013-08-18 11:30:00,
2013-08-18 07:35:00,65.1,60.5,30.21,NNW,338,0.0,0.0,85,0.00,,CLR,0.00,VWS V14.01,2013-08-18 11:35:00,
2013-08-18 07:40:00,65.1,60.5,30.21,NNW,338,0.0,0.0,85,0.00,,CLR,0.00,VWS V14.01,2013-08-18 11:40:00,
2013-08-18 07:45:00,65.3,60.7,30.21,NNW,338,0.0,0.0,85,0.00,,CLR,0.00,VWS V14.01,2013-08-18 11:45:00,
2013-08-18 07:50:00,65.5,60.9,30.21,NNW,338,0.0,0.0,85,0.00,,CLR,0.00,VWS V14.01,2013-08-18 11:50:00,
2013-08-18 07:55:00,65.7,61.0,30.18,NNW,338,0.0,0.0,85,0.00,,CLR,0.00,VWS V14.01,2013-08-18 11:55:00,
2013-08-18 08:00:00,65.8,61.2,30.18,NNW,338,0.0,0.0,85,0.00,,CLR,0.00,VWS V14.01,2013-08-18 12:00:00,
2013-08-18 08:05:00,66.0,61.4,30.18,NNW,338,0.0,0.0,85,0.00,,CLR,0.00,VWS V14.01,2013-08-18 12:05:00,
2013-08-18 08:10:00,66.2,60.9,30.21,NNW,338,0.0,0.0,83,0.00,,CLR,0.00,VWS V14.01,2013-08-18 12:10:00,
2013-08-18 08:15:00,66.7,61.4,30.21,SE,135,0.0,0.0,83,0.00,,OVC090,0.00,VWS V14.01,2013-08-18 12:15:00,
2013-08-18 08:20:00,67.3,61.6,30.21,NNW,338,0.0,1.1,82,0.00,,OVC090,0.00,VWS V14.01,2013-08-18 12:20:00,
2013-08-18 08:25:00,67.8,61.8,30.18,North,0,2.5,3.4,81,0.00,,OVC090,0.00,VWS V14.01,2013-08-18 12:25:00,
2013-08-18 08:30:00,68.4,61.2,30.18,NNE,22,2.0,3.4,78,0.00,,OVC090,0.00,VWS V14.01,2013-08-18 12:30:00,
2013-08-18 08:35:00,68.5,60.3,30.18,NNE,22,2.0,3.4,75,0.00,,OVC090,0.00,VWS V14.01,2013-08-18 12:35:00,
2013-08-18 08:40:00,68.9,60.7,30.18,NNW,338,0.0,3.4,75,0.00,,OVC090,0.00,VWS V14.01,2013-08-18 12:40:00,
2013-08-18 08:45:00,68.9,59.5,30.18,NW,315,1.6,3.4,72,0.00,,OVC090,0.00,VWS V14.01,2013-08-18 12:45:00,
2013-08-18 08:50:00,69.1,59.7,30.18,ENE,68,0.0,3.4,72,0.00,,OVC090,0.00,VWS V14.01,2013-08-18 12:50:00,
2013-08-18 08:55:00,69.3,59.5,30.18,ESE,112,0.0,3.4,71,0.00,,OVC090,0.00,VWS V14.01,2013-08-18 12:55:00,
2013-08-18 09:00:00,69.4,59.6,30.21,ENE,68,1.1,1.6,71,0.00,,OVC090,0.00,VWS V14.01,2013-08-18 13:00:00,
2013-08-18 09:05:00,69.4,59.2,30.21,ENE,68,0.0,2.5,70,0.00,,OVC090,0.00,VWS V14.01,2013-08-18 13:05:00,
2013-08-18 09:10:00,69.6,59.4,30.21,ENE,68,2.9,2.9,70,0.00,,OVC090,0.00,VWS V14.01,2013-08-18 13:10:00,
2013-08-18 09:15:00,69.6,59.0,30.21,North,0,2.2,2.9,69,0.00,,OVC090,0.00,VWS V14.01,2013-08-18 13:15:00,
2013-08-18 09:20:00,69.8,58.8,30.21,NNE,22,2.5,3.1,68,0.00,,OVC090,0.00,VWS V14.01,2013-08-18 13:20:00,
2013-08-18 09:25:00,69.8,58.4,30.21,NNE,22,1.6,3.1,67,0.00,,OVC090,0.00,VWS V14.01,2013-08-18 13:25:00,
2013-08-18 09:30:00,70.2,59.1,30.21,ENE,68,0.0,3.1,68,0.00,,OVC090,0.00,VWS V14.01,2013-08-18 13:30:00,
2013-08-18 09:35:00,70.3,59.3,30.21,ENE,68,1.6,3.1,68,0.00,,OVC090,0.00,VWS V14.01,2013-08-18 13:35:00,
2013-08-18 09:40:00,70.5,59.0,30.21,ENE,68,0.0,3.1,67,0.00,,OVC090,0.00,VWS V14.01,2013-08-18 13:40:00,
2013-08-18 09:45:00,70.9,59.0,30.21,NNE,22,2.2,3.1,66,0.00,,OVC090,0.00,VWS V14.01,2013-08-18 13:45:00,
2013-08-18 09:50:00,71.1,59.1,30.21,NE,45,2.0,3.6,66,0.00,,OVC090,0.00,VWS V14.01,2013-08-18 13:50:00,
2013-08-18 09:55:00,71.2,58.9,30.21,North,0,2.0,3.6,65,0.00,,OVC090,0.00,VWS V14.01,2013-08-18 13:55:00,
2013-08-18 10:00:00,71.4,59.0,30.21,NE,45,2.0,2.7,65,0.00,,OVC090,0.00,VWS V14.01,2013-08-18 14:00:00,
2013-08-18 10:05:00,71.6,58.8,30.21,NNE,22,2.5,2.9,64,0.00,,OVC090,0.00,VWS V14.01,2013-08-18 14:05:00,
2013-08-18 10:10:00,71.8,58.5,30.21,ESE,112,0.0,2.9,63,0.00,,OVC090,0.00,VWS V14.01,2013-08-18 14:10:00,
2013-08-18 10:15:00,72.0,58.2,30.21,North,0,0.0,2.9,62,0.00,,OVC090,0.00,VWS V14.01,2013-08-18 14:15:00,
2013-08-18 10:20:00,72.3,58.6,30.21,North,0,2.5,3.1,62,0.00,,OVC090,0.00,VWS V14.01,2013-08-18 14:20:00,
2013-08-18 10:25:00,72.9,59.1,30.21,NNE,22,2.5,4.0,62,0.00,,OVC090,0.00,VWS V14.01,2013-08-18 14:25:00,
2013-08-18 10:30:00,73.0,58.3,30.21,NW,315,0.0,4.3,60,0.00,,OVC090,0.00,VWS V14.01,2013-08-18 14:30:00,
2013-08-18 10:35:00,73.2,58.5,30.21,SSE,158,0.0,4.3,60,0.00,,OVC090,0.00,VWS V14.01,2013-08-18 14:35:00,
2013-08-18 10:40:00,73.4,57.7,30.21,NE,45,0.0,4.3,58,0.00,,OVC090,0.00,VWS V14.01,2013-08-18 14:40:00,
2013-08-18 10:45:00,73.9,57.8,30.21,NNW,338,3.4,4.3,57,0.00,,OVC085,0.00,VWS V14.01,2013-08-18 14:45:00,
2013-08-18 10:50:00,74.1,57.9,30.21,NNE,22,2.5,4.3,57,0.00,,OVC085,0.00,VWS V14.01,2013-08-18 14:50:00,
2013-08-18 10:55:00,74.7,57.4,30.21,NNW,338,0.9,4.5,55,0.00,,OVC085,0.00,VWS V14.01,2013-08-18 14:55:00,
2013-08-18 11:00:00,74.7,55.3,30.21,NNE,22,1.3,3.1,51,0.00,,OVC080,0.00,VWS V14.01,2013-08-18 15:00:00,
2013-08-18 11:05:00,75.0,56.2,30.21,NNW,338,0.0,4.3,52,0.00,,OVC080,0.00,VWS V14.01,2013-08-18 15:05:00,
2013-08-18 11:10:00,75.6,56.2,30.21,NE,45,0.0,4.3,51,0.00,,OVC080,0.00,VWS V14.01,2013-08-18 15:10:00,
2013-08-18 11:15:00,75.7,54.7,30.21,NNW,338,4.0,6.5,48,0.00,,OVC080,0.00,VWS V14.01,2013-08-18 15:15:00,
2013-08-18 11:20:00,75.7,54.7,30.21,ENE,68,0.0,6.5,48,0.00,,OVC080,0.00,VWS V14.01,2013-08-18 15:20:00,
2013-08-18 11:25:00,76.5,55.9,30.21,NE,45,0.0,6.5,49,0.00,,OVC080,0.00,VWS V14.01,2013-08-18 15:25:00,
2013-08-18 11:30:00,77.0,55.8,30.21,East,90,2.2,6.5,48,0.00,,OVC080,0.00,VWS V14.01,2013-08-18 15:30:00,
2013-08-18 11:35:00,77.4,55.0,30.21,NE,45,2.5,6.5,46,0.00,,OVC080,0.00,VWS V14.01,2013-08-18 15:35:00,
2013-08-18 11:40:00,77.7,54.7,30.21,SE,135,2.0,6.5,45,0.00,,OVC080,0.00,VWS V14.01,2013-08-18 15:40:00,
2013-08-18 11:45:00,78.3,55.8,30.21,SSW,202,0.0,6.5,46,0.00,,BKN085,0.00,VWS V14.01,2013-08-18 15:45:00,
2013-08-18 11:50:00,78.6,55.5,30.21,North,0,2.5,6.5,45,0.00,,BKN085,0.00,VWS V14.01,2013-08-18 15:50:00,
2013-08-18 11:55:00,78.8,53.8,30.21,NW,315,1.6,6.5,42,0.00,,BKN085,0.00,VWS V14.01,2013-08-18 15:55:00,
2013-08-18 12:00:00,79.0,54.0,30.18,East,90,2.7,2.9,42,0.00,,SCT090,0.00,VWS V14.01,2013-08-18 16:00:00,
2013-08-18 12:05:00,78.4,53.5,30.18,NNE,22,0.0,3.8,42,0.00,,SCT090,0.00,VWS V14.01,2013-08-18 16:05:00,
2013-08-18 12:10:00,78.1,53.2,30.21,NNW,338,2.5,4.0,42,0.00,,SCT090,0.00,VWS V14.01,2013-08-18 16:10:00,
2013-08-18 12:15:00,78.8,52.5,30.21,NNW,338,2.9,6.5,40,0.00,,SCT090,0.00,VWS V14.01,2013-08-18 16:15:00,
2013-08-18 12:20:00,79.2,51.4,30.21,NNE,22,3.4,6.5,38,0.00,,SCT090,0.00,VWS V14.01,2013-08-18 16:20:00,
2013-08-18 12:25:00,79.3,52.3,30.21,NNE,22,1.6,6.5,39,0.00,,SCT090,0.00,VWS V14.01,2013-08-18 16:25:00,
2013-08-18 12:30:00,79.5,53.1,30.21,SSE,158,1.6,6.5,40,0.00,,SCT090,0.00,VWS V14.01,2013-08-18 16:30:00,
2013-08-18 12:35:00,79.9,53.4,30.21,NNW,338,1.1,6.5,40,0.00,,SCT090,0.00,VWS V14.01,2013-08-18 16:35:00,
2013-08-18 12:40:00,80.4,53.2,30.21,NNE,22,3.8,6.5,39,0.00,,SCT090,0.00,VWS V14.01,2013-08-18 16:40:00,
2013-08-18 12:45:00,81.0,53.7,30.21,SSW,202,1.6,6.5,39,0.00,,SCT090,0.00,VWS V14.01,2013-08-18 16:45:00,
2013-08-18 12:50:00,81.7,52.9,30.21,WNW,292,2.9,6.5,37,0.00,,SCT090,0.00,VWS V14.01,2013-08-18 16:50:00,
2013-08-18 12:55:00,80.8,49.0,30.21,NE,45,4.9,6.5,33,0.00,,SCT090,0.00,VWS V14.01,2013-08-18 16:55:00,
2013-08-18 13:00:00,80.1,50.0,30.21,NNW,338,0.0,0.0,35,0.00,,,0.00,VWS V14.01,2013-08-18 17:00:00,
2013-08-18 13:05:00,81.0,51.5,30.21,NNE,22,1.3,3.8,36,0.00,,,0.00,VWS V14.01,2013-08-18 17:05:00,
2013-08-18 13:10:00,81.0,50.8,30.21,NNW,338,3.1,3.8,35,0.00,,,0.00,VWS V14.01,2013-08-18 17:10:00,
2013-08-18 13:15:00,80.6,50.5,30.21,North,0,0.0,4.3,35,0.00,,,0.00,VWS V14.01,2013-08-18 17:15:00,
2013-08-18 13:20:00,81.3,51.1,30.21,ENE,68,0.0,4.3,35,0.00,,,0.00,VWS V14.01,2013-08-18 17:20:00,
2013-08-18 13:25:00,81.5,49.7,30.21,SW,225,2.5,4.3,33,0.00,,,0.00,VWS V14.01,2013-08-18 17:25:00,
2013-08-18 13:30:00,80.6,49.7,30.21,NNW,338,0.0,5.4,34,0.00,,,0.00,VWS V14.01,2013-08-18 17:30:00,
2013-08-18 13:35:00,80.6,49.7,30.21,ENE,68,0.0,5.4,34,0.00,,,0.00,VWS V14.01,2013-08-18 17:35:00,
2013-08-18 13:40:00,80.8,51.4,30.21,East,90,1.6,5.4,36,0.00,,,0.00,VWS V14.01,2013-08-18 17:40:00,
2013-08-18 13:45:00,81.5,53.5,30.18,SSE,158,1.3,5.4,38,0.00,,,0.00,VWS V14.01,2013-08-18 17:45:00,
2013-08-18 13:50:00,81.3,51.1,30.18,NNE,22,0.0,5.4,35,0.00,,,0.00,VWS V14.01,2013-08-18 17:50:00,
2013-08-18 13:55:00,81.0,50.0,30.18,NNW,338,0.0,5.4,34,0.00,,,0.00,VWS V14.01,2013-08-18 17:55:00,
2013-08-18 14:00:00,81.0,48.4,30.21,ENE,68,2.5,2.7,32,0.00,,SCT047,0.00,VWS V14.01,2013-08-18 18:00:00,
2013-08-18 14:05:00,82.6,50.6,30.21,NNE,22,2.9,3.1,33,0.00,,SCT047,0.00,VWS V14.01,2013-08-18 18:05:00,
2013-08-18 14:10:00,83.8,51.7,30.21,WNW,292,0.0,3.8,33,0.00,,SCT047,0.00,VWS V14.01,2013-08-18 18:10:00,
2013-08-18 14:15:00,85.1,51.1,30.18,South,180,4.0,4.0,31,0.00,,SCT046,0.00,VWS V14.01,2013-08-18 18:15:00,
2013-08-18 14:20:00,86.0,51.0,30.18,SSW,202,2.0,4.0,30,0.00,,SCT046,0.00,VWS V14.01,2013-08-18 18:20:00,
2013-08-18 14:25:00,86.5,51.5,30.18,SSW,202,1.1,4.0,30,0.00,,SCT046,0.00,VWS V14.01,2013-08-18 18:25:00,
2013-08-18 14:30:00,86.0,49.1,30.18,South,180,2.2,4.0,28,0.00,,SCT046,0.00,VWS V14.01,2013-08-18 18:30:00,
2013-08-18 14:35:00,85.3,49.5,30.18,ENE,68,1.1,4.0,29,0.00,,SCT046,0.00,VWS V14.01,2013-08-18 18:35:00,
2013-08-18 14:40:00,85.8,49.9,30.18,ENE,68,2.5,4.0,29,0.00,,SCT046,0.00,VWS V14.01,2013-08-18 18:40:00,
2013-08-18 14:45:00,86.0,48.2,30.18,ENE,68,0.0,4.0,27,0.00,,SCT046,0.00,VWS V14.01,2013-08-18 18:45:00,
2013-08-18 14:50:00,86.2,46.3,30.18,NNE,22,2.7,4.3,25,0.00,,SCT046,0.00,VWS V14.01,2013-08-18 18:50:00,
2013-08-18 14:55:00,85.6,41.3,30.18,NNW,338,2.9,5.4,21,0.00,,SCT046,0.00,VWS V14.01,2013-08-18 18:55:00,
2013-08-18 15:00:00,85.6,43.6,30.18,NNW,338,1.6,5.4,23,0.00,,BKN250,0.00,VWS V14.01,2013-08-18 19:00:00,
2013-08-18 15:05:00,86.5,46.6,30.18,SSW,202,1.6,3.4,25,0.00,,BKN250,0.00,VWS V14.01,2013-08-18 19:05:00,
2013-08-18 15:10:00,85.8,48.0,30.18,SSW,202,0.9,3.4,27,0.00,,BKN250,0.00,VWS V14.01,2013-08-18 19:10:00,
2013-08-18 15:15:00,84.7,47.1,30.15,South,180,0.0,3.4,27,0.00,,BKN250,0.00,VWS V14.01,2013-08-18 19:15:00,
2013-08-18 15:20:00,83.8,48.2,30.15,SSW,202,1.1,3.4,29,0.00,,BKN250,0.00,VWS V14.01,2013-08-18 19:20:00,
2013-08-18 15:25:00,83.7,48.1,30.15,SSW,202,1.3,3.4,29,0.00,,BKN250,0.00,VWS V14.01,2013-08-18 19:25:00,
2013-08-18 15:30:00,83.5,46.0,30.15,SSE,158,0.0,3.4,27,0.00,,BKN250,0.00,VWS V14.01,2013-08-18 19:30:00,
2013-08-18 15:35:00,83.8,48.2,30.15,South,180,1.6,3.4,29,0.00,,BKN250,0.00,VWS V14.01,2013-08-18 19:35:00,
2013-08-18 15:40:00,84.9,49.2,30.15,SSE,158,2.5,4.7,29,0.00,,BKN250,0.00,VWS V14.01,2013-08-18 19:40:00,
2013-08-18 15:45:00,85.1,46.4,30.15,North,0,0.0,4.7,26,0.00,,BKN250,0.00,VWS V14.01,2013-08-18 19:45:00,
2013-08-18 15:50:00,84.7,46.1,30.15,ENE,68,0.0,4.7,26,0.00,,BKN250,0.00,VWS V14.01,2013-08-18 19:50:00,
2013-08-18 15:55:00,84.6,45.9,30.15,NNW,338,2.5,4.7,26,0.00,,BKN250,0.00,VWS V14.01,2013-08-18 19:55:00,
2013-08-18 16:00:00,84.6,46.9,30.15,North,0,4.7,5.4,27,0.00,,BKN250,0.00,VWS V14.01,2013-08-18 20:00:00,
2013-08-18 16:05:00,84.9,46.2,30.15,NW,315,3.8,5.6,26,0.00,,BKN250,0.00,VWS V14.01,2013-08-18 20:05:00,
2013-08-18 16:10:00,85.1,46.4,30.15,NNW,338,4.0,5.8,26,0.00,,BKN250,0.00,VWS V14.01,2013-08-18 20:10:00,
2013-08-18 16:15:00,85.3,46.5,30.15,NW,315,3.8,6.5,26,0.00,,BKN250,0.00,VWS V14.01,2013-08-18 20:15:00,
2013-08-18 16:20:00,85.3,43.3,30.15,SW,225,1.6,6.5,23,0.00,,BKN250,0.00,VWS V14.01,2013-08-18 20:20:00,
2013-08-18 16:25:00,85.8,47.0,30.15,NNW,338,0.0,6.5,26,0.00,,BKN250,0.00,VWS V14.01,2013-08-18 20:25:00,
2013-08-18 16:30:00,85.8,46.0,30.12,South,180,0.9,6.5,25,0.00,,BKN250,0.00,VWS V14.01,2013-08-18 20:30:00,
2013-08-18 16:35:00,86.4,48.5,30.12,SE,135,0.9,6.5,27,0.00,,BKN250,0.00,VWS V14.01,2013-08-18 20:35:00,
2013-08-18 16:40:00,85.8,49.0,30.12,NW,315,1.3,6.5,28,0.00,,BKN250,0.00,VWS V14.01,2013-08-18 20:40:00,
2013-08-18 16:45:00,85.6,47.9,30.12,SSE,158,0.0,6.5,27,0.00,,BKN250,0.00,VWS V14.01,2013-08-18 20:45:00,
2013-08-18 16:50:00,85.3,48.5,30.12,South,180,0.9,6.5,28,0.00,,BKN250,0.00,VWS V14.01,2013-08-18 20:50:00,
2013-08-18 16:55:00,85.6,48.8,30.12,North,0,1.6,6.5,28,0.00,,BKN250,0.00,VWS V14.01,2013-08-18 20:55:00,
2013-08-18 17:00:00,85.5,46.7,30.15,NNE,22,0.0,0.0,26,0.00,,BKN065,0.00,VWS V14.01,2013-08-18 21:00:00,
2013-08-18 17:05:00,86.4,48.5,30.15,East,90,1.6,3.6,27,0.00,,BKN065,0.00,VWS V14.01,2013-08-18 21:05:00,
2013-08-18 17:10:00,86.7,47.8,30.15,NE,45,1.6,3.6,26,0.00,,BKN065,0.00,VWS V14.01,2013-08-18 21:10:00,
2013-08-18 17:15:00,87.3,45.0,30.12,North,0,0.0,3.6,23,0.00,,BKN065,0.00,VWS V14.01,2013-08-18 21:15:00,
2013-08-18 17:20:00,86.7,43.4,30.12,East,90,1.6,3.6,22,0.00,,BKN065,0.00,VWS V14.01,2013-08-18 21:20:00,
2013-08-18 17:25:00,86.4,43.1,30.12,NNW,338,3.4,4.0,22,0.00,,BKN065,0.00,VWS V14.01,2013-08-18 21:25:00,
2013-08-18 17:30:00,85.5,43.5,30.15,NE,45,2.0,4.0,23,0.00,,BKN065,0.00,VWS V14.01,2013-08-18 21:30:00,
2013-08-18 17:35:00,86.0,43.9,30.15,North,0,5.6,7.6,23,0.00,,BKN065,0.00,VWS V14.01,2013-08-18 21:35:00,
2013-08-18 17:40:00,86.5,44.4,30.15,NNE,22,1.3,7.6,23,0.00,,BKN065,0.00,VWS V14.01,2013-08-18 21:40:00,
2013-08-18 17:45:00,87.3,46.1,30.15,NE,45,0.0,7.6,24,0.00,,BKN065,0.00,VWS V14.01,2013-08-18 21:45:00,
2013-08-18 17:50:00,87.1,43.7,30.15,North,0,0.0,7.6,22,0.00,,BKN065,0.00,VWS V14.01,2013-08-18 21:50:00,
2013-08-18 17:55:00,87.1,42.5,30.15,NNE,22,1.6,7.6,21,0.00,,BKN065,0.00,VWS V14.01,2013-08-18 21:55:00,
2013-08-18 18:00:00,87.1,42.5,30.12,NW,315,3.4,3.4,21,0.00,,BKN065,0.00,VWS V14.01,2013-08-18 22:00:00,
2013-08-18 18:05:00,87.3,43.8,30.12,North,0,2.2,3.4,22,0.00,,,0.00,VWS V14.01,2013-08-18 22:05:00,
2013-08-18 18:10:00,87.1,41.2,30.12,NNW,338,5.4,6.5,20,0.00,,,0.00,VWS V14.01,2013-08-18 22:10:00,
2013-08-18 18:15:00,86.7,40.9,30.15,NNW,338,2.2,6.5,20,0.00,,BKN250,0.00,VWS V14.01,2013-08-18 22:15:00,
2013-08-18 18:20:00,86.9,43.5,30.15,SE,135,0.0,6.5,22,0.00,,BKN250,0.00,VWS V14.01,2013-08-18 22:20:00,
2013-08-18 18:25:00,86.9,42.3,30.15,NNE,22,4.3,6.5,21,0.00,,BKN250,0.00,VWS V14.01,2013-08-18 22:25:00,
2013-08-18 18:30:00,86.4,43.1,30.15,ENE,68,0.0,6.5,22,0.00,,BKN250,0.00,VWS V14.01,2013-08-18 22:30:00,
2013-08-18 18:35:00,85.8,42.6,30.15,ENE,68,1.6,6.5,22,0.00,,OVC250,0.00,VWS V14.01,2013-08-18 22:35:00,
2013-08-18 18:40:00,85.3,42.2,30.15,ENE,68,0.0,6.5,22,0.00,,OVC250,0.00,VWS V14.01,2013-08-18 22:40:00,
2013-08-18 18:45:00,84.9,41.9,30.15,SE,135,1.1,6.5,22,0.00,,BKN250,0.00,VWS V14.01,2013-08-18 22:45:00,
2013-08-18 18:50:00,84.6,41.6,30.15,South,180,2.5,6.5,22,0.00,,BKN250,0.00,VWS V14.01,2013-08-18 22:50:00,
2013-08-18 18:55:00,84.4,42.6,30.15,SSW,202,1.3,6.5,23,0.00,,BKN250,0.00,VWS V14.01,2013-08-18 22:55:00,
2013-08-18 19:00:00,84.0,43.4,30.15,SSE,158,0.0,0.0,24,0.00,,BKN250,0.00,VWS V14.01,2013-08-18 23:00:00,
2013-08-18 19:05:00,83.8,44.3,30.15,South,180,0.0,2.0,25,0.00,,BKN250,0.00,VWS V14.01,2013-08-18 23:05:00,
2013-08-18 19:10:00,83.3,42.8,30.15,South,180,0.0,2.0,24,0.00,,BKN250,0.00,VWS V14.01,2013-08-18 23:10:00,
2013-08-18 19:15:00,83.1,44.7,30.15,WSW,248,0.0,2.7,26,0.00,,BKN250,0.00,VWS V14.01,2013-08-18 23:15:00,
2013-08-18 19:20:00,82.8,43.4,30.15,South,180,0.0,2.7,25,0.00,,BKN250,0.00,VWS V14.01,2013-08-18 23:20:00,
2013-08-18 19:25:00,82.4,44.1,30.15,SE,135,0.0,2.7,26,0.00,,BKN250,0.00,VWS V14.01,2013-08-18 23:25:00,
2013-08-18 19:30:00,82.0,46.7,30.15,SE,135,0.0,2.7,29,0.00,,BKN250,0.00,VWS V14.01,2013-08-18 23:30:00,
2013-08-18 19:35:00,81.7,46.4,30.15,SSE,158,0.0,0.9,29,0.00,,-RA,0.00,VWS V14.01,2013-08-18 23:35:00,
2013-08-18 19:40:00,81.3,45.1,30.15,NE,45,0.0,1.1,28,0.00,,-RA,0.00,VWS V14.01,2013-08-18 23:40:00,
2013-08-18 19:45:00,81.3,46.1,30.12,South,180,1.6,1.6,29,0.00,,-RA,0.00,VWS V14.01,2013-08-18 23:45:00,
2013-08-18 19:50:00,81.1,45.9,30.12,NW,315,0.9,2.5,29,0.00,,-RA,0.00,VWS V14.01,2013-08-18 23:50:00,
2013-08-18 19:55:00,81.0,45.8,30.12,ENE,68,0.9,3.1,29,0.00,,-RA,0.00,VWS V14.01,2013-08-18 23:55:00,
2013-08-18 20:00:00,80.8,45.6,30.12,SSE,158,0.0,3.1,29,0.00,,-RA,0.00,VWS V14.01,2013-08-19 00:00:00,
2013-08-18 20:05:00,80.6,46.3,30.12,SSE,158,2.2,6.3,30,0.00,,-RA,0.00,VWS V14.01,2013-08-19 00:05:00,
2013-08-18 20:10:00,80.4,47.9,30.12,SSW,202,2.7,6.3,32,0.00,,-RA,0.00,VWS V14.01,2013-08-19 00:10:00,
2013-08-18 20:15:00,80.1,51.5,30.15,SSW,202,2.7,6.3,37,0.00,,-RA,0.00,VWS V14.01,2013-08-19 00:15:00,
2013-08-18 20:20:00,79.5,51.0,30.15,South,180,0.0,6.3,37,0.00,,SCT140,0.00,VWS V14.01,2013-08-19 00:20:00,
2013-08-18 20:25:00,79.2,52.1,30.15,SSW,202,2.5,6.3,39,0.00,,SCT140,0.00,VWS V14.01,2013-08-19 00:25:00,
2013-08-18 20:30:00,78.8,53.1,30.15,SSW,202,1.6,6.3,41,0.00,,SCT140,0.00,VWS V14.01,2013-08-19 00:30:00,
2013-08-18 20:35:00,78.4,52.8,30.15,SSW,202,2.9,2.9,41,0.00,,-RA,0.00,VWS V14.01,2013-08-19 00:35:00,
2013-08-18 20:37:00,78.4,52.8,30.15,SSW,202,2.9,2.9,41,0.00,,SCT140,0.00,VWS V14.01,2013-08-19 00:37:00,
2013-08-18 20:42:00,77.9,54.3,30.15,SSW,202,1.6,2.9,44,0.00,,SCT140,0.00,VWS V14.01,2013-08-19 00:42:00,
2013-08-18 20:47:00,77.5,53.9,30.15,SW,225,1.3,2.9,44,0.00,,SCT140,0.00,VWS V14.01,2013-08-19 00:47:00,
2013-08-18 20:52:00,77.2,54.2,30.15,SSW,202,2.9,2.9,45,0.00,,SCT140,0.00,VWS V14.01,2013-08-19 00:52:00,
2013-08-18 20:57:00,77.0,55.8,30.15,South,180,1.1,2.9,48,0.00,,SCT140,0.00,VWS V14.01,2013-08-19 00:57:00,
2013-08-18 21:00:00,76.8,55.7,30.15,SSW,202,0.0,2.9,48,0.00,,-RA,0.00,VWS V14.01,2013-08-19 01:00:00,
2013-08-18 21:02:00,76.6,55.5,30.15,SSW,202,0.0,0.0,48,0.00,,SCT140,0.00,VWS V14.01,2013-08-19 01:02:00,
2013-08-18 21:07:00,76.3,55.2,30.15,SSW,202,0.0,0.0,48,0.00,,SCT140,0.00,VWS V14.01,2013-08-19 01:07:00,
2013-08-18 21:12:00,76.1,55.6,30.15,SSW,202,0.0,0.0,49,0.00,,SCT140,0.00,VWS V14.01,2013-08-19 01:12:00,
2013-08-18 21:17:00,75.9,56.0,30.15,SSW,202,0.0,0.0,50,0.00,,CLR,0.00,VWS V14.01,2013-08-19 01:17:00,
2013-08-18 21:22:00,75.7,55.8,30.15,SSW,202,0.0,0.0,50,0.00,,CLR,0.00,VWS V14.01,2013-08-19 01:22:00,
2013-08-18 21:27:00,75.6,56.2,30.15,WSW,248,0.0,0.0,51,0.00,,CLR,0.00,VWS V14.01,2013-08-19 01:27:00,
2013-08-18 21:32:00,75.4,56.0,30.15,WSW,248,0.0,0.0,51,0.00,,CLR,0.00,VWS V14.01,2013-08-19 01:32:00,
2013-08-18 21:35:00,78.4,52.8,30.15,SSW,202,2.9,2.9,41,0.00,,,0.00,VWS V14.01,2013-08-19 01:35:00,
2013-08-18 21:37:00,75.4,56.0,30.15,NNW,338,0.0,0.0,51,0.00,,CLR,0.00,VWS V14.01,2013-08-19 01:37:00,
2013-08-18 21:42:00,75.2,56.4,30.15,NNW,338,0.0,0.0,52,0.00,,CLR,0.00,VWS V14.01,2013-08-19 01:42:00,
2013-08-18 21:47:00,75.2,56.4,30.15,NNW,338,0.0,0.0,52,0.00,,CLR,0.00,VWS V14.01,2013-08-19 01:47:00,
2013-08-18 21:52:00,75.2,56.4,30.15,NNW,338,0.0,0.0,52,0.00,,CLR,0.00,VWS V14.01,2013-08-19 01:52:00,
2013-08-18 21:57:00,75.0,56.8,30.15,NNW,338,0.0,0.0,53,0.00,,CLR,0.00,VWS V14.01,2013-08-19 01:57:00,
2013-08-18 22:00:00,75.0,57.3,30.15,NNW,338,0.0,0.0,54,0.00,,-RA,0.00,VWS V14.01,2013-08-19 02:00:00,
2013-08-18 22:02:00,75.0,57.3,30.15,NNW,338,0.0,0.0,54,0.00,,CLR,0.00,VWS V14.01,2013-08-19 02:02:00,
2013-08-18 22:07:00,74.8,57.1,30.15,NNW,338,0.0,0.0,54,0.00,,CLR,0.00,VWS V14.01,2013-08-19 02:07:00,
2013-08-18 22:12:00,74.8,57.6,30.15,NNW,338,0.0,0.0,55,0.00,,CLR,0.00,VWS V14.01,2013-08-19 02:12:00,
2013-08-18 22:17:00,74.8,58.1,30.15,NNE,22,0.0,0.0,56,0.00,,CLR,0.00,VWS V14.01,2013-08-19 02:17:00,
2013-08-18 22:22:00,74.8,58.1,30.15,NNE,22,0.0,0.0,56,0.00,,CLR,0.00,VWS V14.01,2013-08-19 02:22:00,
2013-08-18 22:27:00,74.7,58.4,30.18,NNE,22,0.0,0.0,57,0.00,,CLR,0.00,VWS V14.01,2013-08-19 02:27:00,
2013-08-18 22:32:00,74.5,58.3,30.18,NNE,22,0.0,0.0,57,0.00,,CLR,0.00,VWS V14.01,2013-08-19 02:32:00,
2013-08-18 22:37:00,74.3,58.6,30.18,NNE,22,0.0,0.0,58,0.00,,CLR,0.00,VWS V14.01,2013-08-19 02:37:00,
2013-08-18 22:42:00,74.1,58.4,30.18,NNE,22,0.0,0.0,58,0.00,,CLR,0.00,VWS V14.01,2013-08-19 02:42:00,
2013-08-18 22:47:00,73.9,58.7,30.18,NNE,22,0.0,0.0,59,0.00,,CLR,0.00,VWS V14.01,2013-08-19 02:47:00,
2013-08-18 22:52:00,73.8,58.5,30.18,NNE,22,0.0,0.0,59,0.00,,CLR,0.00,VWS V14.01,2013-08-19 02:52:00,
2013-08-18 22:57:00,73.8,59.0,30.18,NNE,22,0.0,0.0,60,0.00,,CLR,0.00,VWS V14.01,2013-08-19 02:57:00,
2013-08-18 23:00:00,73.8,59.0,30.18,NNE,22,0.0,0.0,60,0.00,,-RA,0.00,VWS V14.01,2013-08-19 03:00:00,
2013-08-18 23:02:00,73.6,58.8,30.18,NNE,22,0.0,0.0,60,0.00,,CLR,0.00,VWS V14.01,2013-08-19 03:02:00,
2013-08-18 23:07:00,73.6,59.3,30.18,NNE,22,0.0,0.0,61,0.00,,CLR,0.00,VWS V14.01,2013-08-19 03:07:00,
2013-08-18 23:12:00,73.4,59.2,30.18,NNE,22,0.0,0.0,61,0.00,,CLR,0.00,VWS V14.01,2013-08-19 03:12:00,
2013-08-18 23:17:00,73.2,59.4,30.18,NNE,22,0.0,0.0,62,0.00,,CLR,0.00,VWS V14.01,2013-08-19 03:17:00,
2013-08-18 23:22:00,73.0,59.7,30.18,NNE,22,0.0,0.0,63,0.00,,CLR,0.00,VWS V14.01,2013-08-19 03:22:00,
2013-08-18 23:27:00,73.0,60.2,30.18,NNE,22,0.0,0.0,64,0.00,,CLR,0.00,VWS V14.01,2013-08-19 03:27:00,
2013-08-18 23:32:00,72.9,60.0,30.18,NNE,22,0.0,0.0,64,0.00,,CLR,0.00,VWS V14.01,2013-08-19 03:32:00,
2013-08-18 23:37:00,72.7,60.2,30.18,NNE,22,0.0,0.0,65,0.00,,CLR,0.00,VWS V14.01,2013-08-19 03:37:00,
2013-08-18 23:42:00,72.7,60.2,30.18,NNE,22,0.0,0.0,65,0.00,,CLR,0.00,VWS V14.01,2013-08-19 03:42:00,
2013-08-18 23:47:00,72.5,60.5,30.18,NNE,22,0.0,0.0,66,0.00,,CLR,0.00,VWS V14.01,2013-08-19 03:47:00,
2013-08-18 23:52:00,72.3,60.8,30.18,NNE,22,0.0,0.0,67,0.00,,CLR,0.00,VWS V14.01,2013-08-19 03:52:00,
2013-08-18 23:57:00,72.3,60.8,30.15,NNE,22,0.0,0.0,67,0.00,,CLR,0.00,VWS V14.01,2013-08-19 03:57:00,